x

Orange Beach - 44 Nm Se Of Mobile, Al (42012) Wave Buoy

12:50am - Tue 16th Sep 2014 All times are CDT. -5 hours from GMT.

  • Sig Wave height 3.3ft
  • Swell Direction
  • Peak Period 7s
  • Average Period 5s
  • Wind
    9mph, 11mph gusts
  • Sea Temp 86°f
  • Air Temp 84°f
  • Sea Pressure 1018.4mb
  • Orange Beach - 44 Nm Se Of Mobile, Al
  • Orange Beach - 44 Nm Se Of Mobile, Al

More Historic Weather Station data

Upgrade to MSW Pro to gain access to the past 30 days of data for over 8000 Wavebouys and Weather Stations around the globe.

Join Pro

Comparision Forecast

View Surf forecast
   
Tue 09/16 12:50am 3.5ft 7s 5s 9 11 mph 1018.4mb 86f 84f
Mon 09/15 11:50pm 3.5ft 6s 5s 7 9 mph 1018.5mb 86f 84f
10:50pm 3.5ft 7s 5s 9
mph
1018.7mb 86f 84f
9:50pm 3ft 7s 5s 9 11 mph 1018.8mb 86f 84f
8:50pm 3.5ft 6s 5s 11 13 mph 1018.4mb 86f 84f
7:50pm 3ft 7s 4s 13 16 mph 1017.4mb 87f 83f
6:50pm 3ft 6s 4s 13 16 mph 1017.7mb 87f 82f
5:50pm 2.5ft 6s 5s 18 20 mph 1017.6mb 87f 83f
4:50pm 3ft 7s 5s 11 16 mph 1017.8mb 87f 84f
3:50pm 2.5ft 6s 5s 4 7 mph 1017.6mb 87f 85f
2:50pm 2.5ft 7s 5s 7
mph
1017.8mb 87f 85f
1:50pm 2.5ft 7s 4s 7 9 mph 1018.4mb 87f 85f
12:50pm 2.5ft 6s 4s 7 9 mph 1019.1mb 87f 84f
11:50am 3ft 6s 4s 11
mph
1019.3mb 86f 83f
10:50am 3ft 6s 5s 11
mph
1019.5mb 86f 84f
9:50am 2.5ft 5s 4s 11
mph
1019.4mb 86f 83f
8:50am 3ft 6s 5s 7 9 mph 1019.1mb 86f 85f
7:50am 3ft 5s 5s 7 9 mph 1019.1mb 86f 85f
6:50am 3ft 7s 5s 7 9 mph 1018.7mb 86f 84f
5:50am 3ft 6s 5s 9 11 mph 1018.4mb 86f 84f
4:50am 3ft 5s 5s 9 11 mph 1018mb 86f 84f
3:50am 3ft 6s 4s 11
mph
1017.7mb 86f 84f
2:50am 2.5ft 6s 4s 11 13 mph 1017.9mb 86f 85f
1:50am 2.5ft 7s 4s 9 11 mph 1018.2mb 86f 85f
12:50am 3ft 6s 5s 9 13 mph 1018.5mb 86f 85f
Sun 09/14 11:50pm 2.5ft 7s 4s 11 13 mph 1018.7mb 86f 85f
10:50pm 2.5ft 6s 5s 11 13 mph 1019mb 86f 85f
9:50pm 2.5ft 6s 5s 13 18 mph 1019mb 86f 85f
8:50pm 2.5ft 6s 5s 11 13 mph 1018.7mb 87f 85f
7:50pm 2.5ft 6s 5s 9 11 mph 1018.1mb 87f 85f
6:50pm 2.5ft 7s 5s 7
mph
1017.7mb 87f 85f
5:50pm 2.5ft 6s 5s 7 9 mph 1017.6mb 87f 85f
4:50pm 2.5ft 6s 5s 7 9 mph 1017.6mb 87f 85f
3:50pm 2.5ft 7s 5s 9 11 mph 1017.5mb 87f 85f
2:50pm 2.5ft 7s 4s 11
mph
1018.1mb 87f 84f
1:50pm 2.5ft 6s 4s 9 11 mph 1018.7mb 87f 84f
12:50pm 2.5ft 6s 4s 13 16 mph 1018.9mb 86f 83f
11:50am 2.5ft 6s 4s 16 18 mph 1018.8mb 86f 82f
10:50am 2.5ft 7s 4s 18 20 mph 1019.2mb 86f 81f
9:50am 2.5ft 6s 4s 16 20 mph 1019.3mb 86f 80f
8:50am 2.5ft 6s 4s 16 18 mph 1018.8mb 86f 79f
7:50am 2.5ft 7s 4s 16
mph
1018.8mb 86f 79f
6:50am 2.5ft 6s 4s 13 18 mph 1018.4mb 86f 79f
5:50am 2.5ft 3s 4s 13 16 mph 1018.1mb 86f 80f
4:50am 2.5ft 3s 4s 16 18 mph 1017.7mb 86f 79f
3:50am 2.5ft 5s 3s 16 20 mph 1017.5mb 86f 79f
2:50am 2ft 3s 3s 16 18 mph 1017.5mb 86f 80f
1:50am 2ft 4s 3s 16 20 mph 1017.5mb 86f 81f
12:50am 2ft 3s 3s 13 18 mph 1017.6mb 86f 81f
Sat 09/13 11:50pm 2ft 3s 3s 13 16 mph 1017.7mb 86f 83f
10:50pm 2ft 3s 3s 13 18 mph 1017.9mb 86f 82f
9:50pm 2.5ft 4s 3s 16 20 mph 1018.1mb 86f 82f
8:50pm 1.6ft 3s 3s 16 18 mph 1017.7mb 87f 83f
7:50pm 1.6ft 3s 3s 16 20 mph 1016.7mb 87f 82f
6:50pm 1.3ft 3s 3s 13 16 mph 1016.3mb 87f 82f
5:50pm 1.3ft 3s 4s 7 9 mph 1015.9mb 88f 85f
3:50pm 1ft 3s 4s 4 7 mph 1015.4mb 88f 85f
2:50pm 1ft 6s 3s 2 4 mph 1015.8mb 87f 85f
1:50pm 1.3ft 3s 3s 7 9 mph 1016.5mb 87f 84f
12:50pm 1.3ft 3s 3s 9 11 mph 1017.1mb 87f 84f
11:50am 1.3ft 3s 3s 11 13 mph 1017.6mb 87f 84f
10:50am 1.3ft 3s 3s 13
mph
1017.8mb 86f 84f
9:50am 1.3ft 3s 3s 11 13 mph 1017.6mb 86f 84f
8:50am 1.6ft 3s 3s 13 16 mph 1017.1mb 86f 83f
7:50am 1.6ft 3s 3s 16 18 mph 1016.6mb 86f 83f
6:50am 1.6ft 6s 3s 16 18 mph 1015.8mb 86f 82f
5:50am 1.3ft 3s 3s 16 18 mph 1015.5mb 86f 82f
4:50am 1ft 7s 4s 13 16 mph 1015.1mb 86f 82f
3:50am 1ft 6s 4s 11 13 mph 1015mb 86f 83f
2:50am 1ft 5s 4s 9 11 mph 1015.3mb 86f 84f
1:50am 1ft 6s 4s 4 7 mph 1015.4mb 86f 84f
12:50am 1ft 6s 4s 7 9 mph 1015.9mb 86f 84f
Fri 09/12 11:50pm 1.3ft 9s 4s 7 9 mph 1016.4mb 86f 84f
10:50pm 1.3ft 3s 4s 4 9 mph 1016.4mb 86f 84f
9:50pm 1.6ft 3s 4s 7 9 mph 1016.5mb 87f 85f
8:50pm 1.6ft 3s 4s 7 9 mph 1016mb 87f 85f
7:50pm 1.6ft 3s 4s 7 9 mph 1015.2mb 87f 84f
6:50pm 1.3ft 3s 3s 9 11 mph 1014.9mb 87f 85f
5:50pm 1.6ft 3s 4s 11 13 mph 1014.7mb 87f 85f
4:50pm 1.6ft 4s 3s 11 16 mph 1014.7mb 87f 85f
3:50pm 1.6ft 3s 3s 11 13 mph 1015mb 87f 85f
2:50pm 1.6ft 6s 4s 11 13 mph 1015.3mb 87f 85f
1:50pm 1.6ft 4s 3s 11 13 mph 1015.7mb 87f 85f
12:50pm 1.6ft 5s 4s 11 13 mph 1016.2mb 87f 85f
11:50am 1.6ft 6s 4s 11 13 mph 1016.5mb 87f 85f
10:50am 1.6ft 6s 4s 9 11 mph 1016.7mb 87f 85f
9:50am 1.6ft 6s 4s 9 11 mph 1016.9mb 86f 85f
8:50am 1.6ft 6s 4s 7 9 mph 1016.7mb 86f 85f
7:50am 2ft 6s 4s 9
mph
1016.4mb 86f 85f
6:50am 2ft 6s 4s 2 4 mph 1015.9mb 86f 84f